Rio Chiquito, New Mexico
Current Conditions -  °F | °C
As of 6:35 AM on Thursday 30 Oct 2014 (Local Time) from KSKX Reporting Station
Clear Clear  
Wind Chill: 20°   Ceiling: Unl
Heat Index: 27°   Visibility: 10mi
Dew Point:   Wind: 6mph
Humidity: 47%   Direction: 30°NNE
Pressure: 30.39"   Gusts: NA
Location:  36.0272°N, 105.768°W
Report Text: KSKX 301235Z AUTO 03005KT 10SM CLR M03/M13 A3039 RMK AO1
Loading
Personal Weather Stations






























Interactive Weather Map
Tropical Storm Tracking
New forecast layout! Learn more

10-Day Weather Forecast

Advertisements
Track Severe Weather on mobile